Little Indian, Illinois
Current Conditions -  °F | °C
As of 7:35 AM on Sunday 23 Nov 2014 (Local Time) from KIJX Reporting Station
Clear Clear  
Wind Chill: 12°   Ceiling: Unl
Heat Index: 12°   Visibility: 10mi
Dew Point:   Wind: 13mph
Humidity: 78%   Direction: 170°S
Pressure: 29.69"   Gusts: 22mph
Location:  39.9268°N, 90.2187°W
Report Text: KIJX 231335Z AUTO 17011G19KT 10SM CLR 12/09 A2969 RMK AO2 T01220085
Loading
Personal Weather Stations






























Interactive Weather Map New forecast layout! Learn more

10-Day Weather Forecast

Advertisements
Track Severe Weather on mobile